Time;durP1;ratioP1;P1;durP2;ratioP2;P2;SDS_P1;SDS_P2;PMS_P1;PMS_P2;Temp;Humidity;BMP_temperature;BMP_pressure;BME280_temperature;BME280_humidity;BME280_pressure;Samples;Min_cycle;Max_cycle;Signal;HPM_P1;HPM_P2
2024/01/21 00:00:21;;;;;;;0.10;0.10;;;;;;;-5.67;100.00;144898.25;4951060;28;20231;-62
2024/01/21 00:02:49;;;;;;;0.10;0.10;;;;;;;-5.66;100.00;144900.72;4955827;28;20227;-62
2024/01/21 00:05:15;;;;;;;0.10;0.10;;;;;;;-5.69;100.00;144894.53;4949818;28;20234;-61
2024/01/21 00:07:42;;;;;;;0.10;0.10;;;;;;;-5.75;100.00;144879.78;4954093;28;20227;-62
2024/01/21 00:10:09;;;;;;;0.10;0.10;;;;;;;-5.78;100.00;144872.38;4953700;28;20723;-61
2024/01/21 00:12:36;;;;;;;0.03;0.03;;;;;;;-5.80;100.00;144868.72;4956450;28;20297;-62
2024/01/21 00:15:03;;;;;;;0.10;0.10;;;;;;;-5.94;100.00;144835.53;4951570;28;20579;-62
2024/01/21 00:17:29;;;;;;;0.03;0.03;;;;;;;-5.85;100.00;144856.41;4953828;28;20227;-62
2024/01/21 00:19:57;;;;;;;0.10;0.10;;;;;;;-5.74;100.00;144881.03;4957205;28;20592;-62
2024/01/21 00:22:24;;;;;;;0.00;0.00;;;;;;;-5.86;100.00;144853.94;4948437;28;20247;-62
2024/01/21 00:24:51;;;;;;;0.10;0.10;;;;;;;-5.76;100.00;144876.09;4949499;28;20552;-61
2024/01/21 00:27:17;;;;;;;0.10;0.10;;;;;;;-5.81;100.00;144865.00;4953746;28;20233;-62
2024/01/21 00:29:44;;;;;;;0.10;0.10;;;;;;;-5.87;100.00;144850.28;4970468;28;20232;-62
2024/01/21 00:32:10;;;;;;;0.10;0.10;;;;;;;-5.91;100.00;144841.66;4960675;28;20236;-62
2024/01/21 00:34:37;;;;;;;0.10;0.10;;;;;;;-5.95;100.00;144833.06;4968158;28;20231;-62
2024/01/21 00:37:05;;;;;;;0.03;0.03;;;;;;;-5.95;100.00;144833.06;4955841;28;20223;-62
2024/01/21 00:39:33;;;;;;;0.10;0.10;;;;;;;-5.98;100.00;144824.44;4958489;28;20231;-62
2024/01/21 00:42:00;;;;;;;0.10;0.10;;;;;;;-5.95;100.00;144831.81;4957614;28;20323;-62
2024/01/21 00:44:26;;;;;;;0.07;0.07;;;;;;;-5.97;100.00;144828.13;4960910;28;20236;-62
2024/01/21 00:46:53;;;;;;;0.00;0.00;;;;;;;-5.91;100.00;144841.66;4960188;28;20557;-61
2024/01/21 00:49:20;;;;;;;0.00;0.00;;;;;;;-5.96;100.00;144829.34;4956032;28;20244;-62
2024/01/21 00:51:46;;;;;;;0.10;0.10;;;;;;;-6.18;100.00;144776.50;4959291;28;20237;-61
2024/01/21 00:54:14;;;;;;;0.00;0.00;;;;;;;-6.36;100.00;144733.47;4955253;28;20227;-62
2024/01/21 00:56:41;;;;;;;0.00;0.00;;;;;;;-6.53;100.00;144694.13;4958307;28;20236;-61
2024/01/21 00:59:07;;;;;;;0.10;0.10;;;;;;;-6.65;100.00;144664.63;4954685;28;20259;-62
2024/01/21 01:01:37;;;;;;;0.10;0.10;;;;;;;-6.73;100.00;144647.41;4959556;28;20593;-62
2024/01/21 01:04:04;;;;;;;0.10;0.10;;;;;;;-6.89;100.00;144608.06;4956641;28;20805;-62
2024/01/21 01:06:31;;;;;;;0.10;0.10;;;;;;;-7.03;100.00;144576.09;4958931;28;20593;-62
2024/01/21 01:08:57;;;;;;;0.10;0.10;;;;;;;-7.14;100.00;144550.31;4960525;28;20233;-62
2024/01/21 01:11:27;;;;;;;0.10;0.10;;;;;;;-7.23;100.00;144528.19;4954244;28;20232;-62
2024/01/21 01:13:54;;;;;;;0.00;0.00;;;;;;;-7.29;100.00;144514.63;4954552;28;20226;-62
2024/01/21 01:16:20;;;;;;;0.00;0.00;;;;;;;-7.34;100.00;144501.13;4954190;28;20232;-62
2024/01/21 01:18:49;;;;;;;0.10;0.10;;;;;;;-7.18;100.00;144539.22;4956647;28;20227;-61
2024/01/21 01:21:15;;;;;;;0.00;0.00;;;;;;;-7.26;100.00;144520.81;4952714;28;20230;-61
2024/01/21 01:23:42;;;;;;;0.10;0.10;;;;;;;-7.30;100.00;144512.19;4957765;28;20231;-62
2024/01/21 01:26:09;;;;;;;0.10;0.10;;;;;;;-7.37;100.00;144494.97;4955553;28;20623;-61
2024/01/21 01:28:37;;;;;;;0.00;0.00;;;;;;;-7.37;100.00;144494.97;4956917;28;20230;-62
2024/01/21 01:31:04;;;;;;;0.00;0.00;;;;;;;-7.33;100.00;144503.59;4944735;28;20678;-62
2024/01/21 01:33:30;;;;;;;0.10;0.10;;;;;;;-7.36;100.00;144497.44;4955826;28;20233;-62
2024/01/21 01:35:57;;;;;;;0.10;0.10;;;;;;;-7.37;100.00;144494.97;4954848;28;20242;-62
2024/01/21 01:38:23;;;;;;;0.00;0.00;;;;;;;-7.45;100.00;144476.56;4954979;28;20249;-62
2024/01/21 01:40:50;;;;;;;0.10;0.10;;;;;;;-7.52;100.00;144458.16;4957769;28;20234;-61
2024/01/21 01:43:17;;;;;;;0.10;0.10;;;;;;;-7.51;100.00;144461.81;4970508;28;20590;-62
2024/01/21 01:45:45;;;;;;;0.10;0.10;;;;;;;-7.55;100.00;144451.97;4957350;28;20247;-62
2024/01/21 01:48:11;;;;;;;0.10;0.10;;;;;;;-7.54;100.00;144453.25;4954556;28;20602;-61
2024/01/21 01:50:38;;;;;;;0.10;0.10;;;;;;;-7.52;100.00;144459.34;4953920;28;20248;-62
2024/01/21 01:53:05;;;;;;;0.10;0.10;;;;;;;-7.49;100.00;144465.53;4953136;28;20241;-62
2024/01/21 01:55:32;;;;;;;0.10;0.10;;;;;;;-7.44;100.00;144477.81;4958122;28;20334;-62
2024/01/21 01:57:59;;;;;;;0.10;0.10;;;;;;;-7.43;100.00;144480.28;4954422;28;20223;-61
2024/01/21 02:00:26;;;;;;;0.10;0.10;;;;;;;-7.44;100.00;144477.81;4957638;28;20262;-61
2024/01/21 02:02:55;;;;;;;0.10;0.10;;;;;;;-7.45;100.00;144476.56;4955527;28;20218;-62
2024/01/21 02:05:22;;;;;;;0.10;0.10;;;;;;;-7.51;100.00;144460.59;4954169;28;20232;-62
2024/01/21 02:07:49;;;;;;;0.10;0.10;;;;;;;-7.56;100.00;144450.78;4954315;28;20226;-62
2024/01/21 02:10:16;;;;;;;0.10;0.10;;;;;;;-7.53;100.00;144456.91;4953056;28;20226;-62
2024/01/21 02:12:44;;;;;;;0.10;0.10;;;;;;;-7.56;100.00;144450.78;4962049;28;20328;-61
2024/01/21 02:15:12;;;;;;;0.10;0.10;;;;;;;-7.55;100.00;144451.97;4951796;28;20224;-62
2024/01/21 02:17:38;;;;;;;0.10;0.10;;;;;;;-7.59;100.00;144443.41;4955799;28;20592;-61
2024/01/21 02:20:09;;;;;;;0.10;0.10;;;;;;;-7.64;100.00;144429.88;4945272;28;20227;-62
2024/01/21 02:22:39;;;;;;;0.10;0.10;;;;;;;-7.69;100.00;144417.59;4956978;28;20228;-62
2024/01/21 02:25:08;;;;;;;0.10;0.10;;;;;;;-7.65;100.00;144428.66;4949486;28;20314;-62
2024/01/21 02:27:35;;;;;;;0.10;0.10;;;;;;;-7.66;100.00;144424.97;4953225;28;20223;-62
2024/01/21 02:30:02;;;;;;;0.00;0.00;;;;;;;-7.63;100.00;144433.56;4953906;28;20716;-62
2024/01/21 02:32:29;;;;;;;0.10;0.10;;;;;;;-7.58;100.00;144445.88;4961696;28;20242;-62
2024/01/21 02:34:56;;;;;;;0.10;0.10;;;;;;;-7.54;100.00;144453.25;4959297;28;20244;-61
2024/01/21 02:37:23;;;;;;;0.10;0.10;;;;;;;-7.60;100.00;144440.94;4951474;28;20326;-61
2024/01/21 02:39:49;;;;;;;0.00;0.00;;;;;;;-7.59;100.00;144443.41;4957482;28;21115;-62
2024/01/21 02:42:17;;;;;;;0.10;0.10;;;;;;;-7.58;100.00;144444.63;4953759;28;20290;-62
2024/01/21 02:44:44;;;;;;;0.10;0.10;;;;;;;-7.58;100.00;144444.63;4955732;28;20224;-62
2024/01/21 02:47:11;;;;;;;0.00;0.00;;;;;;;-7.65;100.00;144427.41;4951711;28;20280;-62
2024/01/21 02:49:37;;;;;;;0.10;0.10;;;;;;;-7.67;100.00;144423.75;4955094;28;20254;-62
2024/01/21 02:52:04;;;;;;;0.10;0.10;;;;;;;-7.63;100.00;144432.31;4967593;28;20230;-62
2024/01/21 02:54:31;;;;;;;0.03;0.03;;;;;;;-7.64;100.00;144431.13;4954543;28;20258;-62
2024/01/21 02:56:58;;;;;;;0.10;0.10;;;;;;;-7.64;100.00;144429.88;4956258;28;20225;-62
2024/01/21 02:59:26;;;;;;;0.10;0.10;;;;;;;-7.54;100.00;144453.25;4951302;28;20238;-62
2024/01/21 03:01:53;;;;;;;0.10;0.10;;;;;;;-7.60;100.00;144440.94;4957085;28;20231;-62
2024/01/21 03:04:19;;;;;;;0.10;0.10;;;;;;;-7.57;100.00;144447.06;4957260;28;20239;-61
2024/01/21 03:06:46;;;;;;;0.00;0.00;;;;;;;-7.44;100.00;144477.81;4958535;28;20629;-61
2024/01/21 03:09:12;;;;;;;0.10;0.10;;;;;;;-7.38;100.00;144491.31;4974228;28;20226;-62
2024/01/21 03:11:39;;;;;;;0.00;0.00;;;;;;;-7.36;100.00;144497.44;4963105;28;20622;-62
2024/01/21 03:14:07;;;;;;;0.10;0.10;;;;;;;-7.31;100.00;144509.72;4954259;28;20224;-62
2024/01/21 03:16:35;;;;;;;0.10;0.10;;;;;;;-7.24;100.00;144525.72;4959972;28;20318;-62
2024/01/21 03:19:02;;;;;;;0.10;0.10;;;;;;;-7.14;100.00;144549.06;4954221;28;20258;-62
2024/01/21 03:21:28;;;;;;;0.00;0.00;;;;;;;-7.05;100.00;144569.97;4959757;28;20245;-62
2024/01/21 03:23:55;;;;;;;0.10;0.10;;;;;;;-7.01;100.00;144579.81;4962327;28;20230;-62
2024/01/21 03:26:22;;;;;;;0.10;0.10;;;;;;;-6.97;100.00;144589.63;4960920;28;20240;-62
2024/01/21 03:28:48;;;;;;;0.10;0.10;;;;;;;-6.87;100.00;144612.97;4962687;28;20229;-62
2024/01/21 03:31:15;;;;;;;0.10;0.10;;;;;;;-6.86;100.00;144615.44;4958683;28;20238;-62
2024/01/21 03:33:43;;;;;;;0.00;0.00;;;;;;;-6.88;100.00;144610.50;4960185;28;20229;-63
2024/01/21 03:36:12;;;;;;;0.10;0.10;;;;;;;-6.74;100.00;144644.94;4956268;28;20234;-62
2024/01/21 03:38:39;;;;;;;0.00;0.00;;;;;;;-6.72;100.00;144649.84;4963864;28;20218;-61
2024/01/21 03:41:05;;;;;;;0.10;0.10;;;;;;;-6.74;100.00;144644.94;4958900;28;20227;-61
2024/01/21 03:43:32;;;;;;;0.00;0.00;;;;;;;-6.77;100.00;144637.56;4972300;28;20246;-62
2024/01/21 03:45:59;;;;;;;0.10;0.10;;;;;;;-6.75;100.00;144641.22;4973259;28;20800;-62
2024/01/21 03:48:25;;;;;;;0.10;0.10;;;;;;;-6.76;100.00;144640.03;4956877;28;20243;-61
2024/01/21 03:50:53;;;;;;;0.10;0.10;;;;;;;-6.78;100.00;144635.09;4955897;28;20244;-62
2024/01/21 03:53:20;;;;;;;0.10;0.10;;;;;;;-6.73;100.00;144646.16;4951394;28;20248;-62
2024/01/21 03:55:47;;;;;;;0.10;0.10;;;;;;;-6.73;100.00;144647.41;4955605;28;20255;-62
2024/01/21 03:58:15;;;;;;;0.07;0.07;;;;;;;-6.76;100.00;144638.78;4950887;28;20292;-62
2024/01/21 04:00:42;;;;;;;0.10;0.10;;;;;;;-6.76;100.00;144638.78;4955791;28;20215;-62
2024/01/21 04:03:08;;;;;;;0.10;0.10;;;;;;;-6.79;100.00;144632.66;4952594;28;20310;-61
2024/01/21 04:05:35;;;;;;;0.00;0.00;;;;;;;-6.80;100.00;144630.19;4954698;28;20703;-62
2024/01/21 04:08:05;;;;;;;0.10;0.10;;;;;;;-6.84;100.00;144621.56;4970957;28;20221;-63
2024/01/21 04:10:32;;;;;;;0.10;0.10;;;;;;;-6.90;100.00;144606.84;4960800;28;20237;-62
2024/01/21 04:12:59;;;;;;;0.10;0.10;;;;;;;-6.98;100.00;144587.19;4961666;28;20236;-63
2024/01/21 04:15:25;;;;;;;0.03;0.03;;;;;;;-7.00;100.00;144583.47;4956341;28;20232;-63
2024/01/21 04:17:52;;;;;;;0.10;0.10;;;;;;;-7.01;100.00;144581.00;4972013;28;20219;-62
2024/01/21 04:20:19;;;;;;;0.10;0.10;;;;;;;-7.05;100.00;144571.19;4956730;28;20327;-62
2024/01/21 04:22:46;;;;;;;0.10;0.10;;;;;;;-7.05;100.00;144569.97;4959193;28;20254;-62
2024/01/21 04:25:14;;;;;;;0.10;0.10;;;;;;;-7.06;100.00;144568.72;4955411;28;20234;-62
2024/01/21 04:27:40;;;;;;;0.00;0.00;;;;;;;-7.10;100.00;144558.88;4949043;28;20596;-62
2024/01/21 04:32:54;;;;;;;0.10;0.10;;;;;;;-7.12;100.00;144555.22;5072065;23;20234;-61
2024/01/21 04:35:21;;;;;;;0.00;0.00;;;;;;;-7.13;100.00;144551.50;4993241;28;20265;-61
2024/01/21 04:37:47;;;;;;;0.00;0.00;;;;;;;-7.14;100.00;144549.06;4997532;28;20265;-62
2024/01/21 04:40:15;;;;;;;0.10;0.10;;;;;;;-7.15;100.00;144546.59;4992746;28;20234;-62
2024/01/21 04:42:42;;;;;;;0.00;0.00;;;;;;;-7.15;100.00;144546.59;4979835;28;20227;-62
2024/01/21 04:45:10;;;;;;;0.10;0.10;;;;;;;-7.20;100.00;144534.31;4973822;28;20240;-61
2024/01/21 04:47:36;;;;;;;0.10;0.10;;;;;;;-7.17;100.00;144542.94;4978753;28;20227;-61
2024/01/21 04:50:03;;;;;;;0.10;0.10;;;;;;;-7.11;100.00;144556.41;4971132;28;20226;-61
2024/01/21 04:52:30;;;;;;;0.10;0.10;;;;;;;-7.10;100.00;144558.88;4977289;28;20239;-61
2024/01/21 04:54:56;;;;;;;0.00;0.00;;;;;;;-7.09;100.00;144561.34;4979818;28;20571;-60
2024/01/21 04:57:24;;;;;;;0.10;0.10;;;;;;;-7.12;100.00;144553.97;4972283;28;20227;-59
2024/01/21 04:59:51;;;;;;;0.10;0.10;;;;;;;-7.07;100.00;144566.25;4977434;28;20223;-61
2024/01/21 05:02:18;;;;;;;0.10;0.10;;;;;;;-7.06;100.00;144568.72;4982145;28;20708;-61
2024/01/21 05:04:44;;;;;;;0.10;0.10;;;;;;;-6.99;100.00;144585.94;4978215;28;20265;-61
2024/01/21 05:07:11;;;;;;;0.03;0.03;;;;;;;-6.99;100.00;144585.94;4973324;28;20705;-61
2024/01/21 05:09:38;;;;;;;0.03;0.03;;;;;;;-6.98;100.00;144587.19;4979104;28;20246;-61
2024/01/21 05:12:05;;;;;;;0.00;0.00;;;;;;;-6.94;100.00;144597.00;4974700;28;20251;-61
2024/01/21 05:14:33;;;;;;;0.10;0.10;;;;;;;-6.89;100.00;144609.25;4978837;28;20245;-61
2024/01/21 05:16:59;;;;;;;0.10;0.10;;;;;;;-6.87;100.00;144614.19;4972948;28;20225;-61
2024/01/21 05:19:26;;;;;;;0.10;0.10;;;;;;;-6.82;100.00;144625.28;4975994;28;20241;-62
2024/01/21 05:21:53;;;;;;;0.00;0.00;;;;;;;-6.78;100.00;144635.09;4977103;28;20242;-62
2024/01/21 05:24:19;;;;;;;0.10;0.10;;;;;;;-6.70;100.00;144654.78;4976313;28;20239;-61
2024/01/21 05:26:46;;;;;;;0.00;0.00;;;;;;;-6.74;100.00;144643.69;4975875;28;20209;-61
2024/01/21 05:29:13;;;;;;;0.10;0.10;;;;;;;-6.73;100.00;144647.41;4965687;28;20255;-61
2024/01/21 05:31:41;;;;;;;0.10;0.10;;;;;;;-6.70;100.00;144654.78;4989173;28;20229;-61
2024/01/21 05:34:08;;;;;;;0.10;0.10;;;;;;;-6.73;100.00;144646.16;4971939;28;20228;-61
2024/01/21 05:36:35;;;;;;;0.10;0.10;;;;;;;-6.73;100.00;144647.41;4977802;28;20226;-61
2024/01/21 05:39:01;;;;;;;0.00;0.00;;;;;;;-6.71;100.00;144651.06;4976473;28;20800;-60
2024/01/21 05:41:28;;;;;;;0.10;0.10;;;;;;;-6.61;100.00;144674.44;4977018;28;20234;-61
2024/01/21 05:43:55;;;;;;;0.00;0.00;;;;;;;-6.50;100.00;144700.25;4978475;28;20288;-61
2024/01/21 05:46:22;;;;;;;0.10;0.10;;;;;;;-6.43;100.00;144718.72;4974752;28;20246;-61
2024/01/21 05:48:50;;;;;;;0.10;0.10;;;;;;;-6.49;100.00;144702.72;4974594;28;20232;-61
2024/01/21 05:51:16;;;;;;;0.10;0.10;;;;;;;-6.49;100.00;144702.72;4971692;28;20310;-61
2024/01/21 05:53:43;;;;;;;0.00;0.00;;;;;;;-6.52;100.00;144697.78;4975456;28;20233;-61
2024/01/21 05:56:10;;;;;;;0.10;0.10;;;;;;;-6.54;100.00;144692.88;4973101;28;20247;-61
2024/01/21 05:58:36;;;;;;;0.10;0.10;;;;;;;-6.47;100.00;144707.63;4976586;28;20773;-61
2024/01/21 06:01:03;;;;;;;0.07;0.07;;;;;;;-6.39;100.00;144727.31;4972262;28;20258;-61
2024/01/21 06:03:30;;;;;;;0.07;0.07;;;;;;;-6.39;100.00;144728.56;4977211;28;20231;-62
2024/01/21 06:05:58;;;;;;;0.10;0.10;;;;;;;-6.36;100.00;144733.47;4976289;28;20674;-62
2024/01/21 06:08:24;;;;;;;0.10;0.10;;;;;;;-6.27;100.00;144755.56;4977099;28;20319;-62
2024/01/21 06:10:51;;;;;;;0.10;0.10;;;;;;;-6.31;100.00;144747.00;4975580;28;20224;-62
2024/01/21 06:13:18;;;;;;;0.10;0.10;;;;;;;-6.35;100.00;144737.16;4975329;28;20222;-62
2024/01/21 06:15:44;;;;;;;0.10;0.10;;;;;;;-6.38;100.00;144731.03;4974642;28;20236;-61
2024/01/21 06:18:13;;;;;;;0.00;0.00;;;;;;;-6.38;100.00;144729.78;4970658;28;20236;-62
2024/01/21 06:20:40;;;;;;;0.00;0.00;;;;;;;-6.28;100.00;144753.13;4978361;28;20308;-62
2024/01/21 06:23:08;;;;;;;0.10;0.10;;;;;;;-6.23;100.00;144766.66;4973687;28;20585;-61
2024/01/21 06:25:35;;;;;;;0.10;0.10;;;;;;;-6.22;100.00;144767.88;4976028;28;20233;-61
2024/01/21 06:28:03;;;;;;;0.10;0.10;;;;;;;-6.21;100.00;144770.34;4972415;28;20227;-62
2024/01/21 06:30:30;;;;;;;0.00;0.00;;;;;;;-6.22;100.00;144767.88;4975896;28;20231;-62
2024/01/21 06:32:56;;;;;;;0.10;0.10;;;;;;;-6.19;100.00;144775.25;4961616;28;20223;-61
2024/01/21 06:35:23;;;;;;;0.00;0.00;;;;;;;-6.19;100.00;144775.25;4972203;28;20243;-61
2024/01/21 06:37:50;;;;;;;0.00;0.00;;;;;;;-6.13;100.00;144788.81;4977630;28;20717;-60
2024/01/21 06:40:18;;;;;;;0.03;0.03;;;;;;;-6.06;100.00;144804.78;4973124;28;20229;-61
2024/01/21 06:42:44;;;;;;;0.00;0.00;;;;;;;-6.00;100.00;144820.75;4976281;28;20286;-61
2024/01/21 06:45:12;;;;;;;0.10;0.10;;;;;;;-5.98;100.00;144824.44;4972072;28;20233;-61
2024/01/21 06:47:39;;;;;;;0.10;0.10;;;;;;;-5.97;100.00;144826.88;4975557;28;20210;-61
2024/01/21 06:50:06;;;;;;;0.00;0.00;;;;;;;-5.96;100.00;144830.59;4973047;28;20226;-61
2024/01/21 06:52:33;;;;;;;0.00;0.00;;;;;;;-5.89;100.00;144845.38;4988739;28;20329;-62
2024/01/21 06:55:00;;;;;;;0.10;0.10;;;;;;;-5.87;100.00;144851.50;4973489;28;20228;-61
2024/01/21 06:57:28;;;;;;;0.00;0.00;;;;;;;-5.87;100.00;144851.50;4974567;28;20238;-62
2024/01/21 06:59:55;;;;;;;0.00;0.00;;;;;;;-5.80;100.00;144867.47;4988141;28;20211;-62
2024/01/21 07:02:21;;;;;;;0.10;0.10;;;;;;;-5.80;100.00;144867.47;4988383;28;20267;-61
2024/01/21 07:04:48;;;;;;;0.00;0.00;;;;;;;-5.75;100.00;144879.78;4977440;28;20922;-61
2024/01/21 07:07:15;;;;;;;0.10;0.10;;;;;;;-5.70;100.00;144892.06;4975440;28;20695;-62
2024/01/21 07:09:42;;;;;;;0.00;0.00;;;;;;;-5.60;100.00;144914.22;4976808;28;20223;-62
2024/01/21 07:12:09;;;;;;;0.10;0.10;;;;;;;-5.45;100.00;144951.16;4972035;28;20240;-61
2024/01/21 07:14:37;;;;;;;0.10;0.10;;;;;;;-5.38;100.00;144968.38;4976797;28;20223;-62
2024/01/21 07:17:04;;;;;;;0.03;0.03;;;;;;;-5.40;100.00;144962.25;4973000;28;20218;-62
2024/01/21 07:19:31;;;;;;;0.00;0.00;;;;;;;-5.34;100.00;144978.22;4974040;28;20235;-62
2024/01/21 07:21:58;;;;;;;0.10;0.10;;;;;;;-5.33;100.00;144979.50;4974962;28;20696;-61
2024/01/21 07:24:25;;;;;;;0.00;0.00;;;;;;;-5.29;100.00;144989.28;4970307;28;20302;-62
2024/01/21 07:26:51;;;;;;;0.10;0.10;;;;;;;-5.28;100.00;144990.53;4977514;28;20757;-62
2024/01/21 07:29:18;;;;;;;0.07;0.07;;;;;;;-5.31;100.00;144983.16;4971548;28;20307;-62
2024/01/21 07:31:46;;;;;;;0.10;0.10;;;;;;;-5.28;100.00;144990.53;4973471;28;20218;-62
2024/01/21 07:34:13;;;;;;;0.00;0.00;;;;;;;-5.21;100.00;145007.78;4964653;28;20218;-62
2024/01/21 07:36:40;;;;;;;0.00;0.00;;;;;;;-5.11;100.00;145032.41;4975744;28;20307;-62
2024/01/21 07:39:06;;;;;;;0.10;0.10;;;;;;;-4.97;100.00;145064.41;4974763;28;20221;-62
2024/01/21 07:41:33;;;;;;;0.00;0.00;;;;;;;-4.93;100.00;145075.47;4978933;28;20246;-62
2024/01/21 07:44:00;;;;;;;0.10;0.10;;;;;;;-4.95;100.00;145069.34;4971674;28;20234;-62
2024/01/21 07:46:26;;;;;;;0.00;0.00;;;;;;;-4.96;100.00;145068.09;4979594;28;20686;-63
2024/01/21 07:48:55;;;;;;;0.00;0.00;;;;;;;-5.08;100.00;145038.53;4977770;28;20686;-62
2024/01/21 07:51:21;;;;;;;0.00;0.00;;;;;;;-4.96;100.00;145066.88;4973871;28;20326;-62
2024/01/21 07:53:48;;;;;;;0.00;0.00;;;;;;;-4.92;100.00;145076.72;4978894;28;20238;-62
2024/01/21 07:56:15;;;;;;;0.00;0.00;;;;;;;-4.86;100.00;145090.25;4974525;28;20731;-62
2024/01/21 07:58:42;;;;;;;0.10;0.10;;;;;;;-4.79;100.00;145108.75;4978804;28;20237;-62
2024/01/21 08:01:10;;;;;;;0.00;0.00;;;;;;;-4.74;100.00;145119.81;4976976;28;20232;-61
2024/01/21 08:03:37;;;;;;;0.00;0.00;;;;;;;-4.66;100.00;145138.25;4978783;28;20230;-63
2024/01/21 08:06:07;;;;;;;0.10;0.10;;;;;;;-4.64;100.00;145144.44;4976121;28;20227;-63
2024/01/21 08:08:34;;;;;;;0.00;0.00;;;;;;;-4.66;100.00;145139.50;4978909;28;20312;-62
2024/01/21 08:11:01;;;;;;;0.00;0.00;;;;;;;-4.63;100.00;145146.91;4972778;28;20698;-63
2024/01/21 08:13:27;;;;;;;0.00;0.00;;;;;;;-4.58;100.00;145157.97;4979275;28;20246;-63
2024/01/21 08:15:54;;;;;;;0.00;0.00;;;;;;;-4.53;100.00;145169.06;4991769;28;20215;-63
2024/01/21 08:18:21;;;;;;;0.00;0.00;;;;;;;-4.46;100.00;145186.31;4975077;28;20226;-63
2024/01/21 08:20:47;;;;;;;0.00;0.00;;;;;;;-4.42;100.00;145196.19;4980265;28;20234;-62
2024/01/21 08:23:18;;;;;;;0.00;0.00;;;;;;;-4.37;100.00;145208.50;4975087;28;20640;-62
2024/01/21 08:25:44;;;;;;;0.00;0.00;;;;;;;-4.34;100.00;145215.88;4978452;28;20252;-61
2024/01/21 08:28:13;;;;;;;0.00;0.00;;;;;;;-4.26;100.00;145233.13;4975175;28;20241;-63
2024/01/21 08:30:40;;;;;;;0.00;0.00;;;;;;;-4.18;100.00;145254.06;4966720;28;20320;-62
2024/01/21 08:33:07;;;;;;;0.00;0.00;;;;;;;-4.13;100.00;145265.13;4974516;28;20234;-62
2024/01/21 08:35:34;;;;;;;0.00;0.00;;;;;;;-4.05;100.00;145284.84;4967483;28;20339;-63
2024/01/21 08:38:01;;;;;;;0.00;0.00;;;;;;;-3.97;100.00;145303.34;4973037;28;20226;-63
2024/01/21 08:40:29;;;;;;;0.00;0.00;;;;;;;-3.92;100.00;145315.69;4978864;28;20234;-62
2024/01/21 08:42:55;;;;;;;0.00;0.00;;;;;;;-3.81;100.00;145341.53;4978087;28;20242;-62
2024/01/21 08:45:22;;;;;;;0.00;0.00;;;;;;;-3.72;100.00;145362.50;4975003;28;20239;-63
2024/01/21 08:47:49;;;;;;;0.10;0.10;;;;;;;-3.60;100.00;145390.84;4979647;28;20223;-62
2024/01/21 08:50:16;;;;;;;0.00;0.00;;;;;;;-3.52;100.00;145409.31;4976217;28;20231;-63
2024/01/21 08:52:43;;;;;;;0.00;0.00;;;;;;;-3.48;100.00;145419.16;4978386;28;20220;-62
2024/01/21 08:55:09;;;;;;;0.00;0.00;;;;;;;-3.51;100.00;145413.03;4973856;28;20219;-62
2024/01/21 08:57:37;;;;;;;0.00;0.00;;;;;;;-3.37;100.00;145446.28;4976918;28;20237;-62
2024/01/21 09:00:05;;;;;;;0.00;0.00;;;;;;;-3.19;100.00;145488.22;4978234;28;20234;-62
2024/01/21 09:02:32;;;;;;;0.00;0.00;;;;;;;-3.16;100.00;145496.81;4980425;28;20300;-62
2024/01/21 09:04:59;;;;;;;0.00;0.00;;;;;;;-2.98;100.00;145538.75;4977822;28;20234;-62
2024/01/21 09:07:25;;;;;;;0.00;0.00;;;;;;;-2.98;100.00;145540.00;4971886;28;20231;-62
2024/01/21 09:09:52;;;;;;;0.00;0.00;;;;;;;-2.85;100.00;145569.63;4980421;28;20239;-63
2024/01/21 09:12:19;;;;;;;0.00;0.00;;;;;;;-2.82;100.00;145577.00;4973885;28;20224;-63
2024/01/21 09:14:47;;;;;;;0.00;0.00;;;;;;;-2.71;100.00;145604.16;4976673;28;20216;-63
2024/01/21 09:17:13;;;;;;;0.00;0.00;;;;;;;-2.58;100.00;145634.97;4971705;28;20235;-63
2024/01/21 09:19:40;;;;;;;0.00;0.00;;;;;;;-2.51;100.00;145651.00;4978451;28;20224;-63
2024/01/21 09:22:07;;;;;;;0.00;0.00;;;;;;;-2.46;100.00;145662.13;4972102;28;20224;-63
2024/01/21 09:24:33;;;;;;;0.00;0.00;;;;;;;-2.40;100.00;145676.91;4978174;28;20565;-63
2024/01/21 09:27:00;;;;;;;0.00;0.00;;;;;;;-2.39;100.00;145679.41;4972328;28;20581;-63
2024/01/21 09:29:27;;;;;;;0.00;0.00;;;;;;;-2.27;100.00;145707.75;4978252;28;20263;-63
2024/01/21 09:31:56;;;;;;;0.00;0.00;;;;;;;-2.43;100.00;145670.72;4976399;28;20233;-63
2024/01/21 09:34:23;;;;;;;0.00;0.00;;;;;;;-2.48;100.00;145657.19;4974379;28;20243;-63
2024/01/21 09:36:50;;;;;;;0.00;0.00;;;;;;;-2.77;100.00;145589.34;4977632;28;20708;-62
2024/01/21 09:39:17;;;;;;;0.00;0.00;;;;;;;-2.50;100.00;145653.44;4973655;28;20231;-62
2024/01/21 09:41:48;;;;;;;0.00;0.00;;;;;;;-2.31;100.00;145697.88;4976605;28;20223;-62
2024/01/21 09:44:16;;;;;;;0.00;0.00;;;;;;;-2.34;100.00;145690.47;4970733;28;20228;-62
2024/01/21 09:46:42;;;;;;;0.00;0.00;;;;;;;-2.23;100.00;145718.88;4976886;28;20232;-63
2024/01/21 09:49:12;;;;;;;0.00;0.00;;;;;;;-2.20;100.00;145725.03;4971902;28;20271;-63
2024/01/21 09:51:39;;;;;;;0.00;0.00;;;;;;;-2.08;100.00;145754.66;4975872;28;20231;-63
2024/01/21 09:54:07;;;;;;;0.00;0.00;;;;;;;-1.77;100.00;145826.25;4974256;28;20228;-63
2024/01/21 09:56:34;;;;;;;0.00;0.00;;;;;;;-1.76;100.00;145829.91;4979422;28;20263;-63
2024/01/21 09:59:02;;;;;;;0.00;0.00;;;;;;;-1.48;100.00;145896.59;4974313;28;20228;-63
2024/01/21 10:01:29;;;;;;;0.00;0.00;;;;;;;-1.32;100.00;145934.84;4974947;28;20244;-63
2024/01/21 10:03:56;;;;;;;0.00;0.00;;;;;;;-1.26;100.00;145949.66;4985943;28;20228;-63
2024/01/21 10:06:24;;;;;;;0.00;0.00;;;;;;;-1.15;100.00;145975.63;4972299;28;20240;-63
2024/01/21 10:08:51;;;;;;;0.00;0.00;;;;;;;-1.01;100.00;146007.69;4978304;28;20258;-63
2024/01/21 10:11:18;;;;;;;0.00;0.00;;;;;;;-0.87;100.00;146042.28;4974061;28;20217;-63
2024/01/21 10:13:45;;;;;;;0.00;0.00;;;;;;;-0.86;100.00;146043.53;4976351;28;20225;-63
2024/01/21 10:16:12;;;;;;;0.00;0.00;;;;;;;-1.03;100.00;146004.00;4973766;28;20218;-64
2024/01/21 10:18:39;;;;;;;0.00;0.00;;;;;;;-0.78;100.00;146064.53;4974112;28;20224;-64
2024/01/21 10:21:06;;;;;;;0.00;0.00;;;;;;;-0.85;100.00;146046.00;4974787;28;20299;-64
2024/01/21 10:23:35;;;;;;;0.00;0.00;;;;;;;-0.71;100.00;146079.34;4969921;28;20245;-63
2024/01/21 10:26:02;;;;;;;0.00;0.00;;;;;;;-0.42;100.00;146148.53;4974965;28;20229;-63
2024/01/21 10:28:32;;;;;;;0.00;0.00;;;;;;;-0.26;100.00;146188.09;4976261;28;20237;-63
2024/01/21 10:30:59;;;;;;;0.00;0.00;;;;;;;-0.22;100.00;146197.97;4968628;28;20280;-63
2024/01/21 10:33:26;;;;;;;0.00;0.00;;;;;;;0.06;100.00;146263.47;4972976;28;20239;-63
2024/01/21 10:35:56;;;;;;;0.00;0.00;;;;;;;0.15;100.00;146285.72;4975514;28;20236;-64
2024/01/21 10:38:25;;;;;;;0.00;0.00;;;;;;;0.07;100.00;146267.16;4973797;28;20236;-64
2024/01/21 10:40:54;;;;;;;0.00;0.00;;;;;;;-0.40;100.00;146154.69;4975827;28;20243;-63
2024/01/21 10:43:21;;;;;;;0.00;0.00;;;;;;;-0.76;100.00;146069.47;4970083;28;20234;-63
2024/01/21 10:45:48;;;;;;;0.00;0.00;;;;;;;-0.85;100.00;146047.22;4976133;28;20228;-63
2024/01/21 10:48:19;;;;;;;0.00;0.00;;;;;;;-0.66;100.00;146091.72;4971871;28;20700;-63
2024/01/21 10:50:47;;;;;;;0.00;0.00;;;;;;;-1.22;100.00;145958.34;4972509;28;20221;-63
2024/01/21 10:53:17;;;;;;;0.00;0.00;;;;;;;-1.06;100.00;145996.59;4975670;28;20243;-63
2024/01/21 10:55:45;;;;;;;0.00;0.00;;;;;;;-1.04;100.00;146001.53;4972792;28;20218;-63
2024/01/21 10:58:17;;;;;;;0.00;0.00;;;;;;;-1.19;100.00;145966.97;4972999;28;20228;-64
2024/01/21 11:00:44;;;;;;;0.00;0.00;;;;;;;-1.18;100.00;145968.22;4974885;28;20231;-63
2024/01/21 11:03:25;;;;;;;0.00;0.00;;;;;;;-1.13;100.00;145980.56;4968737;28;20222;-63
2024/01/21 11:05:54;;;;;;;0.00;0.00;;;;;;;-1.06;100.00;145997.81;4976202;28;20693;-63
2024/01/21 11:08:24;;;;;;;0.00;0.00;;;;;;;-1.06;100.00;145996.59;4973058;28;20249;-63
2024/01/21 11:11:01;;;;;;;0.00;0.00;;;;;;;-0.96;100.00;146020.06;4975021;28;20720;-63
2024/01/21 11:13:43;;;;;;;0.00;0.00;;;;;;;-0.90;100.00;146036.13;4971745;28;20238;-63
2024/01/21 11:16:34;;;;;;;0.00;0.00;;;;;;;-0.82;100.00;146053.44;4972872;28;20217;-64
2024/01/21 11:19:04;;;;;;;0.00;0.00;;;;;;;-0.66;100.00;146092.97;4969939;28;20329;-63